sensor_id;sensor_type;location;lat;lon;timestamp;P1;durP1;ratioP1;P2;durP2;ratioP2
65037;SDS011;51605;47.040;15.294;2023-06-10T00:01:12;1.55;;;1.40;;
65037;SDS011;51605;47.040;15.294;2023-06-10T00:03:38;1.50;;;1.38;;
65037;SDS011;51605;47.040;15.294;2023-06-10T00:06:06;1.60;;;1.40;;
65037;SDS011;51605;47.040;15.294;2023-06-10T00:08:31;1.60;;;1.50;;
65037;SDS011;51605;47.040;15.294;2023-06-10T00:10:58;1.83;;;1.40;;
65037;SDS011;51605;47.040;15.294;2023-06-10T00:13:23;1.73;;;1.63;;
65037;SDS011;51605;47.040;15.294;2023-06-10T00:15:50;1.65;;;1.55;;
65037;SDS011;51605;47.040;15.294;2023-06-10T00:18:15;1.42;;;1.33;;
65037;SDS011;51605;47.040;15.294;2023-06-10T00:20:42;1.65;;;1.35;;
65037;SDS011;51605;47.040;15.294;2023-06-10T00:23:08;1.60;;;1.50;;
65037;SDS011;51605;47.040;15.294;2023-06-10T00:25:34;1.55;;;1.45;;
65037;SDS011;51605;47.040;15.294;2023-06-10T00:28:00;1.80;;;1.38;;
65037;SDS011;51605;47.040;15.294;2023-06-10T00:30:26;1.80;;;1.65;;
65037;SDS011;51605;47.040;15.294;2023-06-10T00:32:51;2.25;;;1.50;;
65037;SDS011;51605;47.040;15.294;2023-06-10T00:35:17;1.70;;;1.42;;
65037;SDS011;51605;47.040;15.294;2023-06-10T00:37:43;1.60;;;1.50;;
65037;SDS011;51605;47.040;15.294;2023-06-10T00:40:08;1.60;;;1.50;;
65037;SDS011;51605;47.040;15.294;2023-06-10T00:42:35;1.38;;;1.27;;
65037;SDS011;51605;47.040;15.294;2023-06-10T00:45:00;1.40;;;1.10;;
65037;SDS011;51605;47.040;15.294;2023-06-10T00:47:27;1.63;;;1.52;;
65037;SDS011;51605;47.040;15.294;2023-06-10T00:49:53;1.70;;;1.60;;
65037;SDS011;51605;47.040;15.294;2023-06-10T00:52:19;1.65;;;1.38;;
65037;SDS011;51605;47.040;15.294;2023-06-10T00:54:50;1.75;;;1.40;;
65037;SDS011;51605;47.040;15.294;2023-06-10T00:57:16;1.90;;;1.35;;
65037;SDS011;51605;47.040;15.294;2023-06-10T00:59:43;1.83;;;1.60;;
65037;SDS011;51605;47.040;15.294;2023-06-10T01:02:13;1.40;;;1.30;;
65037;SDS011;51605;47.040;15.294;2023-06-10T01:04:39;1.45;;;1.35;;
65037;SDS011;51605;47.040;15.294;2023-06-10T01:15:13;1.40;;;1.30;;
65037;SDS011;51605;47.040;15.294;2023-06-10T01:17:55;1.30;;;1.20;;
65037;SDS011;51605;47.040;15.294;2023-06-10T01:20:22;1.67;;;1.58;;
65037;SDS011;51605;47.040;15.294;2023-06-10T01:22:49;1.65;;;1.48;;
65037;SDS011;51605;47.040;15.294;2023-06-10T01:25:15;1.50;;;1.20;;
65037;SDS011;51605;47.040;15.294;2023-06-10T01:27:42;1.35;;;1.25;;
65037;SDS011;51605;47.040;15.294;2023-06-10T01:30:16;1.58;;;1.33;;
65037;SDS011;51605;47.040;15.294;2023-06-10T01:32:50;1.40;;;1.30;;
65037;SDS011;51605;47.040;15.294;2023-06-10T01:35:17;1.30;;;1.20;;
65037;SDS011;51605;47.040;15.294;2023-06-10T01:37:46;1.30;;;1.20;;
65037;SDS011;51605;47.040;15.294;2023-06-10T01:40:13;1.40;;;1.25;;
65037;SDS011;51605;47.040;15.294;2023-06-10T01:42:40;1.70;;;1.33;;
65037;SDS011;51605;47.040;15.294;2023-06-10T01:45:06;1.50;;;1.40;;
65037;SDS011;51605;47.040;15.294;2023-06-10T01:47:32;1.83;;;1.48;;
65037;SDS011;51605;47.040;15.294;2023-06-10T01:49:58;1.77;;;1.40;;
65037;SDS011;51605;47.040;15.294;2023-06-10T01:52:24;1.92;;;1.52;;
65037;SDS011;51605;47.040;15.294;2023-06-10T01:54:49;1.42;;;1.33;;
65037;SDS011;51605;47.040;15.294;2023-06-10T01:57:15;2.38;;;1.80;;
65037;SDS011;51605;47.040;15.294;2023-06-10T01:59:41;1.83;;;1.50;;
65037;SDS011;51605;47.040;15.294;2023-06-10T02:02:09;1.20;;;1.10;;
65037;SDS011;51605;47.040;15.294;2023-06-10T02:04:34;1.65;;;1.40;;
65037;SDS011;51605;47.040;15.294;2023-06-10T02:07:00;1.85;;;1.48;;
65037;SDS011;51605;47.040;15.294;2023-06-10T02:09:28;1.50;;;1.40;;
65037;SDS011;51605;47.040;15.294;2023-06-10T02:12:00;1.55;;;1.45;;
65037;SDS011;51605;47.040;15.294;2023-06-10T02:14:29;1.52;;;1.20;;
65037;SDS011;51605;47.040;15.294;2023-06-10T02:16:54;1.45;;;1.20;;
65037;SDS011;51605;47.040;15.294;2023-06-10T02:19:22;1.40;;;1.30;;
65037;SDS011;51605;47.040;15.294;2023-06-10T02:21:48;1.50;;;1.30;;
65037;SDS011;51605;47.040;15.294;2023-06-10T02:24:14;1.67;;;1.58;;
65037;SDS011;51605;47.040;15.294;2023-06-10T02:26:40;1.55;;;1.23;;
65037;SDS011;51605;47.040;15.294;2023-06-10T02:29:05;1.63;;;1.50;;
65037;SDS011;51605;47.040;15.294;2023-06-10T02:31:31;1.50;;;1.40;;
65037;SDS011;51605;47.040;15.294;2023-06-10T02:34:00;1.38;;;1.27;;
65037;SDS011;51605;47.040;15.294;2023-06-10T02:36:26;1.65;;;1.30;;
65037;SDS011;51605;47.040;15.294;2023-06-10T02:38:52;1.58;;;1.35;;
65037;SDS011;51605;47.040;15.294;2023-06-10T02:41:18;1.40;;;1.30;;
65037;SDS011;51605;47.040;15.294;2023-06-10T02:43:44;1.85;;;1.33;;
65037;SDS011;51605;47.040;15.294;2023-06-10T02:46:10;2.20;;;1.30;;
65037;SDS011;51605;47.040;15.294;2023-06-10T02:48:42;1.60;;;1.30;;
65037;SDS011;51605;47.040;15.294;2023-06-10T02:51:09;2.05;;;1.40;;
65037;SDS011;51605;47.040;15.294;2023-06-10T02:53:35;1.58;;;1.48;;
65037;SDS011;51605;47.040;15.294;2023-06-10T02:56:01;2.03;;;1.58;;
65037;SDS011;51605;47.040;15.294;2023-06-10T02:58:26;1.23;;;1.10;;
65037;SDS011;51605;47.040;15.294;2023-06-10T03:00:52;1.40;;;1.30;;
65037;SDS011;51605;47.040;15.294;2023-06-10T03:03:18;1.77;;;1.40;;
65037;SDS011;51605;47.040;15.294;2023-06-10T03:05:44;1.50;;;1.40;;
65037;SDS011;51605;47.040;15.294;2023-06-10T03:08:09;1.55;;;1.42;;
65037;SDS011;51605;47.040;15.294;2023-06-10T03:10:35;1.70;;;1.60;;
65037;SDS011;51605;47.040;15.294;2023-06-10T03:13:01;1.55;;;1.45;;
65037;SDS011;51605;47.040;15.294;2023-06-10T03:15:26;1.65;;;1.50;;
65037;SDS011;51605;47.040;15.294;2023-06-10T03:20:19;1.40;;;1.30;;
65037;SDS011;51605;47.040;15.294;2023-06-10T03:22:46;1.10;;;1.00;;
65037;SDS011;51605;47.040;15.294;2023-06-10T03:25:12;1.38;;;1.27;;
65037;SDS011;51605;47.040;15.294;2023-06-10T03:27:42;1.40;;;1.30;;
65037;SDS011;51605;47.040;15.294;2023-06-10T03:30:08;1.70;;;1.50;;
65037;SDS011;51605;47.040;15.294;2023-06-10T03:32:42;1.40;;;1.30;;
65037;SDS011;51605;47.040;15.294;2023-06-10T03:35:08;1.42;;;1.30;;
65037;SDS011;51605;47.040;15.294;2023-06-10T03:37:34;1.50;;;1.40;;
65037;SDS011;51605;47.040;15.294;2023-06-10T03:40:00;1.40;;;1.30;;
65037;SDS011;51605;47.040;15.294;2023-06-10T03:42:26;1.63;;;1.52;;
65037;SDS011;51605;47.040;15.294;2023-06-10T03:44:51;1.80;;;1.70;;
65037;SDS011;51605;47.040;15.294;2023-06-10T03:47:18;1.50;;;1.40;;
65037;SDS011;51605;47.040;15.294;2023-06-10T03:49:43;1.70;;;1.35;;
65037;SDS011;51605;47.040;15.294;2023-06-10T03:52:09;1.30;;;1.20;;
65037;SDS011;51605;47.040;15.294;2023-06-10T03:54:35;1.70;;;1.40;;
65037;SDS011;51605;47.040;15.294;2023-06-10T03:57:01;1.38;;;1.27;;
65037;SDS011;51605;47.040;15.294;2023-06-10T03:59:28;1.80;;;1.70;;
65037;SDS011;51605;47.040;15.294;2023-06-10T04:01:53;1.40;;;1.30;;
65037;SDS011;51605;47.040;15.294;2023-06-10T04:04:19;1.60;;;1.50;;
65037;SDS011;51605;47.040;15.294;2023-06-10T04:06:45;1.70;;;1.40;;
65037;SDS011;51605;47.040;15.294;2023-06-10T04:09:12;1.60;;;1.50;;
65037;SDS011;51605;47.040;15.294;2023-06-10T04:11:37;1.45;;;1.20;;
65037;SDS011;51605;47.040;15.294;2023-06-10T04:14:03;1.70;;;1.60;;
65037;SDS011;51605;47.040;15.294;2023-06-10T04:16:29;1.50;;;1.40;;
65037;SDS011;51605;47.040;15.294;2023-06-10T04:18:54;1.60;;;1.50;;
65037;SDS011;51605;47.040;15.294;2023-06-10T04:21:20;1.35;;;1.25;;
65037;SDS011;51605;47.040;15.294;2023-06-10T04:23:46;1.60;;;1.20;;
65037;SDS011;51605;47.040;15.294;2023-06-10T04:26:12;1.40;;;1.20;;
65037;SDS011;51605;47.040;15.294;2023-06-10T04:28:38;1.73;;;1.48;;
65037;SDS011;51605;47.040;15.294;2023-06-10T04:31:04;1.67;;;1.45;;
65037;SDS011;51605;47.040;15.294;2023-06-10T04:33:30;1.30;;;1.20;;
65037;SDS011;51605;47.040;15.294;2023-06-10T04:35:55;1.20;;;1.10;;
65037;SDS011;51605;47.040;15.294;2023-06-10T04:38:21;1.40;;;1.30;;
65037;SDS011;51605;47.040;15.294;2023-06-10T04:40:47;1.63;;;1.52;;
65037;SDS011;51605;47.040;15.294;2023-06-10T04:43:13;1.35;;;1.25;;
65037;SDS011;51605;47.040;15.294;2023-06-10T04:45:39;1.67;;;1.40;;
65037;SDS011;51605;47.040;15.294;2023-06-10T04:48:05;1.60;;;1.50;;
65037;SDS011;51605;47.040;15.294;2023-06-10T04:50:32;1.40;;;1.30;;
65037;SDS011;51605;47.040;15.294;2023-06-10T04:52:58;1.52;;;1.40;;
65037;SDS011;51605;47.040;15.294;2023-06-10T04:55:24;1.35;;;1.10;;
65037;SDS011;51605;47.040;15.294;2023-06-10T04:57:50;1.40;;;1.30;;
65037;SDS011;51605;47.040;15.294;2023-06-10T05:00:16;1.30;;;1.20;;
65037;SDS011;51605;47.040;15.294;2023-06-10T05:02:43;1.30;;;1.20;;
65037;SDS011;51605;47.040;15.294;2023-06-10T05:05:09;1.90;;;1.38;;
65037;SDS011;51605;47.040;15.294;2023-06-10T05:07:36;1.63;;;1.30;;
65037;SDS011;51605;47.040;15.294;2023-06-10T05:10:02;1.65;;;1.40;;
65037;SDS011;51605;47.040;15.294;2023-06-10T05:12:28;1.60;;;1.50;;
65037;SDS011;51605;47.040;15.294;2023-06-10T05:14:53;1.30;;;1.20;;
65037;SDS011;51605;47.040;15.294;2023-06-10T05:17:19;1.70;;;1.60;;
65037;SDS011;51605;47.040;15.294;2023-06-10T05:19:45;1.63;;;1.50;;
65037;SDS011;51605;47.040;15.294;2023-06-10T05:24:38;1.52;;;1.17;;
65037;SDS011;51605;47.040;15.294;2023-06-10T05:27:04;1.13;;;1.02;;
65037;SDS011;51605;47.040;15.294;2023-06-10T05:29:31;1.30;;;1.20;;
65037;SDS011;51605;47.040;15.294;2023-06-10T05:34:27;1.48;;;1.20;;
65037;SDS011;51605;47.040;15.294;2023-06-10T05:36:56;1.42;;;1.20;;
65037;SDS011;51605;47.040;15.294;2023-06-10T05:39:22;1.40;;;1.20;;
65037;SDS011;51605;47.040;15.294;2023-06-10T05:41:48;1.40;;;1.30;;
65037;SDS011;51605;47.040;15.294;2023-06-10T05:44:13;1.40;;;1.25;;
65037;SDS011;51605;47.040;15.294;2023-06-10T05:46:39;1.30;;;1.20;;
65037;SDS011;51605;47.040;15.294;2023-06-10T05:49:05;1.20;;;1.10;;
65037;SDS011;51605;47.040;15.294;2023-06-10T05:51:30;1.30;;;1.20;;
65037;SDS011;51605;47.040;15.294;2023-06-10T05:53:56;1.65;;;1.33;;
65037;SDS011;51605;47.040;15.294;2023-06-10T05:56:21;1.30;;;1.20;;
65037;SDS011;51605;47.040;15.294;2023-06-10T05:58:48;1.50;;;1.40;;
65037;SDS011;51605;47.040;15.294;2023-06-10T06:01:13;1.43;;;1.30;;
65037;SDS011;51605;47.040;15.294;2023-06-10T06:03:39;1.88;;;1.52;;
65037;SDS011;51605;47.040;15.294;2023-06-10T06:06:05;1.50;;;1.40;;
65037;SDS011;51605;47.040;15.294;2023-06-10T06:08:30;1.55;;;1.45;;
65037;SDS011;51605;47.040;15.294;2023-06-10T06:10:56;1.30;;;1.20;;
65037;SDS011;51605;47.040;15.294;2023-06-10T06:13:22;1.50;;;1.30;;
65037;SDS011;51605;47.040;15.294;2023-06-10T06:15:47;1.30;;;1.20;;
65037;SDS011;51605;47.040;15.294;2023-06-10T06:18:13;1.42;;;1.33;;
65037;SDS011;51605;47.040;15.294;2023-06-10T06:20:39;1.60;;;1.50;;
65037;SDS011;51605;47.040;15.294;2023-06-10T06:23:05;1.60;;;1.50;;
65037;SDS011;51605;47.040;15.294;2023-06-10T06:25:31;1.58;;;1.40;;
65037;SDS011;51605;47.040;15.294;2023-06-10T06:27:56;1.65;;;1.42;;
65037;SDS011;51605;47.040;15.294;2023-06-10T06:30:22;1.30;;;1.20;;
65037;SDS011;51605;47.040;15.294;2023-06-10T06:32:48;1.33;;;1.23;;
65037;SDS011;51605;47.040;15.294;2023-06-10T06:35:13;1.40;;;1.30;;
65037;SDS011;51605;47.040;15.294;2023-06-10T06:37:39;1.50;;;1.30;;
65037;SDS011;51605;47.040;15.294;2023-06-10T06:40:05;1.20;;;1.07;;
65037;SDS011;51605;47.040;15.294;2023-06-10T06:42:31;1.37;;;1.27;;
65037;SDS011;51605;47.040;15.294;2023-06-10T06:44:57;1.42;;;1.33;;
65037;SDS011;51605;47.040;15.294;2023-06-10T06:47:22;1.30;;;1.20;;
65037;SDS011;51605;47.040;15.294;2023-06-10T06:49:48;1.30;;;1.20;;
65037;SDS011;51605;47.040;15.294;2023-06-10T06:52:15;1.23;;;1.10;;
65037;SDS011;51605;47.040;15.294;2023-06-10T06:54:40;1.30;;;1.20;;
65037;SDS011;51605;47.040;15.294;2023-06-10T06:57:06;1.35;;;1.20;;
65037;SDS011;51605;47.040;15.294;2023-06-10T06:59:33;1.00;;;1.00;;
65037;SDS011;51605;47.040;15.294;2023-06-10T07:01:58;1.35;;;1.25;;
65037;SDS011;51605;47.040;15.294;2023-06-10T07:04:24;1.42;;;1.33;;
65037;SDS011;51605;47.040;15.294;2023-06-10T07:06:50;1.52;;;1.10;;
65037;SDS011;51605;47.040;15.294;2023-06-10T07:09:16;1.40;;;1.27;;
65037;SDS011;51605;47.040;15.294;2023-06-10T07:11:41;1.55;;;1.45;;
65037;SDS011;51605;47.040;15.294;2023-06-10T07:14:07;1.50;;;1.40;;
65037;SDS011;51605;47.040;15.294;2023-06-10T07:16:33;1.40;;;1.30;;
65037;SDS011;51605;47.040;15.294;2023-06-10T07:18:59;1.40;;;1.30;;
65037;SDS011;51605;47.040;15.294;2023-06-10T07:21:25;1.40;;;1.30;;
65037;SDS011;51605;47.040;15.294;2023-06-10T07:23:50;1.30;;;1.20;;
65037;SDS011;51605;47.040;15.294;2023-06-10T07:26:18;1.77;;;1.40;;
65037;SDS011;51605;47.040;15.294;2023-06-10T07:28:46;1.40;;;1.30;;
65037;SDS011;51605;47.040;15.294;2023-06-10T07:31:12;2.78;;;1.30;;
65037;SDS011;51605;47.040;15.294;2023-06-10T07:33:37;1.58;;;1.48;;
65037;SDS011;51605;47.040;15.294;2023-06-10T07:36:06;1.48;;;1.38;;
65037;SDS011;51605;47.040;15.294;2023-06-10T07:38:32;1.42;;;1.33;;
65037;SDS011;51605;47.040;15.294;2023-06-10T07:40:59;1.27;;;1.17;;
65037;SDS011;51605;47.040;15.294;2023-06-10T07:43:24;1.48;;;1.38;;
65037;SDS011;51605;47.040;15.294;2023-06-10T07:45:50;1.55;;;1.45;;
65037;SDS011;51605;47.040;15.294;2023-06-10T07:48:16;1.50;;;1.40;;
65037;SDS011;51605;47.040;15.294;2023-06-10T07:50:41;1.85;;;1.63;;
65037;SDS011;51605;47.040;15.294;2023-06-10T07:53:07;1.27;;;1.17;;
65037;SDS011;51605;47.040;15.294;2023-06-10T07:55:33;1.40;;;1.30;;
65037;SDS011;51605;47.040;15.294;2023-06-10T07:57:58;1.30;;;1.10;;
65037;SDS011;51605;47.040;15.294;2023-06-10T08:00:24;1.50;;;1.40;;
65037;SDS011;51605;47.040;15.294;2023-06-10T08:02:50;1.30;;;1.20;;
65037;SDS011;51605;47.040;15.294;2023-06-10T08:05:16;1.70;;;1.30;;
65037;SDS011;51605;47.040;15.294;2023-06-10T08:07:42;1.20;;;1.10;;
65037;SDS011;51605;47.040;15.294;2023-06-10T08:10:08;1.30;;;1.20;;
65037;SDS011;51605;47.040;15.294;2023-06-10T08:12:34;1.30;;;1.20;;
65037;SDS011;51605;47.040;15.294;2023-06-10T08:15:01;1.23;;;1.13;;
65037;SDS011;51605;47.040;15.294;2023-06-10T08:17:29;1.52;;;1.30;;
65037;SDS011;51605;47.040;15.294;2023-06-10T08:19:55;1.40;;;1.30;;
65037;SDS011;51605;47.040;15.294;2023-06-10T08:22:21;1.52;;;1.35;;
65037;SDS011;51605;47.040;15.294;2023-06-10T08:24:46;1.73;;;1.13;;
65037;SDS011;51605;47.040;15.294;2023-06-10T08:27:12;1.50;;;1.40;;
65037;SDS011;51605;47.040;15.294;2023-06-10T08:29:38;1.77;;;1.30;;
65037;SDS011;51605;47.040;15.294;2023-06-10T08:32:05;1.50;;;1.40;;
65037;SDS011;51605;47.040;15.294;2023-06-10T08:34:32;1.30;;;1.20;;
65037;SDS011;51605;47.040;15.294;2023-06-10T08:37:00;1.40;;;1.30;;
65037;SDS011;51605;47.040;15.294;2023-06-10T08:39:26;1.52;;;1.30;;
65037;SDS011;51605;47.040;15.294;2023-06-10T08:41:58;1.50;;;1.30;;
65037;SDS011;51605;47.040;15.294;2023-06-10T08:44:32;1.40;;;1.30;;
65037;SDS011;51605;47.040;15.294;2023-06-10T08:47:05;1.70;;;1.35;;
65037;SDS011;51605;47.040;15.294;2023-06-10T08:49:44;1.50;;;1.40;;
65037;SDS011;51605;47.040;15.294;2023-06-10T08:52:14;1.92;;;1.20;;
65037;SDS011;51605;47.040;15.294;2023-06-10T08:54:42;1.92;;;1.55;;
65037;SDS011;51605;47.040;15.294;2023-06-10T08:57:13;1.40;;;1.30;;
65037;SDS011;51605;47.040;15.294;2023-06-10T08:59:40;1.67;;;1.50;;
65037;SDS011;51605;47.040;15.294;2023-06-10T09:02:06;2.03;;;1.67;;
65037;SDS011;51605;47.040;15.294;2023-06-10T09:04:33;1.95;;;1.60;;
65037;SDS011;51605;47.040;15.294;2023-06-10T09:07:01;1.35;;;1.25;;
65037;SDS011;51605;47.040;15.294;2023-06-10T09:09:27;1.92;;;1.50;;
65037;SDS011;51605;47.040;15.294;2023-06-10T09:11:55;2.10;;;1.50;;
65037;SDS011;51605;47.040;15.294;2023-06-10T09:14:21;2.20;;;1.40;;
65037;SDS011;51605;47.040;15.294;2023-06-10T09:16:48;1.50;;;1.40;;
65037;SDS011;51605;47.040;15.294;2023-06-10T09:19:15;2.10;;;1.53;;
65037;SDS011;51605;47.040;15.294;2023-06-10T09:21:42;1.70;;;1.60;;
65037;SDS011;51605;47.040;15.294;2023-06-10T09:24:08;1.38;;;1.27;;
65037;SDS011;51605;47.040;15.294;2023-06-10T09:26:34;1.50;;;1.20;;
65037;SDS011;51605;47.040;15.294;2023-06-10T09:29:06;1.40;;;1.30;;
65037;SDS011;51605;47.040;15.294;2023-06-10T09:31:34;1.85;;;1.50;;
65037;SDS011;51605;47.040;15.294;2023-06-10T09:34:05;1.85;;;1.65;;
65037;SDS011;51605;47.040;15.294;2023-06-10T09:36:35;1.40;;;1.30;;
65037;SDS011;51605;47.040;15.294;2023-06-10T09:39:01;1.58;;;1.48;;
65037;SDS011;51605;47.040;15.294;2023-06-10T09:41:34;1.30;;;1.20;;
65037;SDS011;51605;47.040;15.294;2023-06-10T09:44:01;1.70;;;1.40;;
65037;SDS011;51605;47.040;15.294;2023-06-10T09:46:34;1.48;;;1.33;;
65037;SDS011;51605;47.040;15.294;2023-06-10T09:49:00;1.60;;;1.50;;
65037;SDS011;51605;47.040;15.294;2023-06-10T09:51:25;1.52;;;1.33;;
65037;SDS011;51605;47.040;15.294;2023-06-10T09:53:51;1.40;;;1.30;;
65037;SDS011;51605;47.040;15.294;2023-06-10T09:56:18;1.52;;;1.42;;
65037;SDS011;51605;47.040;15.294;2023-06-10T09:58:44;1.60;;;1.50;;
65037;SDS011;51605;47.040;15.294;2023-06-10T10:01:11;1.60;;;1.50;;
65037;SDS011;51605;47.040;15.294;2023-06-10T10:03:43;1.58;;;1.35;;
65037;SDS011;51605;47.040;15.294;2023-06-10T10:06:13;2.30;;;2.10;;
65037;SDS011;51605;47.040;15.294;2023-06-10T10:08:40;2.33;;;2.13;;
65037;SDS011;51605;47.040;15.294;2023-06-10T10:11:05;1.58;;;1.48;;
65037;SDS011;51605;47.040;15.294;2023-06-10T10:13:33;1.90;;;1.80;;
65037;SDS011;51605;47.040;15.294;2023-06-10T10:16:00;1.98;;;1.60;;
65037;SDS011;51605;47.040;15.294;2023-06-10T10:18:29;2.13;;;1.90;;
65037;SDS011;51605;47.040;15.294;2023-06-10T10:23:26;1.63;;;1.40;;
65037;SDS011;51605;47.040;15.294;2023-06-10T10:25:57;1.98;;;1.80;;
65037;SDS011;51605;47.040;15.294;2023-06-10T10:28:25;1.70;;;1.60;;
65037;SDS011;51605;47.040;15.294;2023-06-10T10:31:00;2.10;;;1.80;;
65037;SDS011;51605;47.040;15.294;2023-06-10T10:33:38;2.33;;;2.13;;
65037;SDS011;51605;47.040;15.294;2023-06-10T10:36:06;1.58;;;1.48;;
65037;SDS011;51605;47.040;15.294;2023-06-10T10:40:58;1.60;;;1.50;;
65037;SDS011;51605;47.040;15.294;2023-06-10T10:45:59;2.28;;;1.80;;
65037;SDS011;51605;47.040;15.294;2023-06-10T10:48:25;2.35;;;1.60;;
65037;SDS011;51605;47.040;15.294;2023-06-10T10:50:57;2.20;;;2.00;;
65037;SDS011;51605;47.040;15.294;2023-06-10T10:53:23;2.40;;;2.20;;
65037;SDS011;51605;47.040;15.294;2023-06-10T10:58:32;2.00;;;1.80;;
65037;SDS011;51605;47.040;15.294;2023-06-10T11:00:58;2.00;;;1.83;;
65037;SDS011;51605;47.040;15.294;2023-06-10T11:03:27;1.58;;;1.48;;
65037;SDS011;51605;47.040;15.294;2023-06-10T11:05:58;2.22;;;2.03;;
65037;SDS011;51605;47.040;15.294;2023-06-10T11:10:55;2.10;;;1.90;;
65037;SDS011;51605;47.040;15.294;2023-06-10T11:13:21;1.95;;;1.67;;
65037;SDS011;51605;47.040;15.294;2023-06-10T11:15:48;1.77;;;1.67;;
65037;SDS011;51605;47.040;15.294;2023-06-10T11:31:25;1.90;;;1.80;;
65037;SDS011;51605;47.040;15.294;2023-06-10T11:33:56;1.88;;;1.65;;
65037;SDS011;51605;47.040;15.294;2023-06-10T11:36:23;1.85;;;1.70;;
65037;SDS011;51605;47.040;15.294;2023-06-10T11:38:50;2.00;;;1.63;;
65037;SDS011;51605;47.040;15.294;2023-06-10T11:41:20;2.30;;;2.10;;
65037;SDS011;51605;47.040;15.294;2023-06-10T11:43:46;2.20;;;1.70;;
65037;SDS011;51605;47.040;15.294;2023-06-10T11:46:12;2.10;;;1.65;;
65037;SDS011;51605;47.040;15.294;2023-06-10T11:48:39;2.42;;;2.22;;
65037;SDS011;51605;47.040;15.294;2023-06-10T11:51:14;1.70;;;1.60;;
65037;SDS011;51605;47.040;15.294;2023-06-10T11:53:39;2.55;;;2.30;;
65037;SDS011;51605;47.040;15.294;2023-06-10T11:56:05;2.22;;;2.03;;
65037;SDS011;51605;47.040;15.294;2023-06-10T11:58:31;2.00;;;1.80;;
65037;SDS011;51605;47.040;15.294;2023-06-10T12:00:57;2.17;;;1.95;;
65037;SDS011;51605;47.040;15.294;2023-06-10T12:03:23;2.20;;;2.00;;
65037;SDS011;51605;47.040;15.294;2023-06-10T12:08:26;2.20;;;2.00;;
65037;SDS011;51605;47.040;15.294;2023-06-10T12:10:52;2.00;;;1.80;;
65037;SDS011;51605;47.040;15.294;2023-06-10T12:13:19;2.28;;;2.08;;
65037;SDS011;51605;47.040;15.294;2023-06-10T12:15:45;2.55;;;2.35;;
65037;SDS011;51605;47.040;15.294;2023-06-10T12:18:23;2.40;;;2.20;;
65037;SDS011;51605;47.040;15.294;2023-06-10T12:20:49;2.47;;;1.92;;
65037;SDS011;51605;47.040;15.294;2023-06-10T12:23:16;2.30;;;2.10;;
65037;SDS011;51605;47.040;15.294;2023-06-10T12:25:50;2.28;;;2.05;;
65037;SDS011;51605;47.040;15.294;2023-06-10T12:28:25;2.33;;;1.75;;
65037;SDS011;51605;47.040;15.294;2023-06-10T12:30:52;2.13;;;1.90;;
65037;SDS011;51605;47.040;15.294;2023-06-10T12:33:32;2.50;;;2.30;;
65037;SDS011;51605;47.040;15.294;2023-06-10T12:35:57;1.90;;;1.77;;
65037;SDS011;51605;47.040;15.294;2023-06-10T12:38:24;2.13;;;1.92;;
65037;SDS011;51605;47.040;15.294;2023-06-10T12:40:52;2.13;;;1.92;;
65037;SDS011;51605;47.040;15.294;2023-06-10T12:43:21;4.10;;;2.30;;
65037;SDS011;51605;47.040;15.294;2023-06-10T12:45:48;2.58;;;2.00;;
65037;SDS011;51605;47.040;15.294;2023-06-10T12:48:21;2.20;;;1.92;;
65037;SDS011;51605;47.040;15.294;2023-06-10T12:50:55;1.88;;;1.70;;
65037;SDS011;51605;47.040;15.294;2023-06-10T12:53:22;2.15;;;1.95;;
65037;SDS011;51605;47.040;15.294;2023-06-10T12:55:49;2.00;;;1.80;;
65037;SDS011;51605;47.040;15.294;2023-06-10T12:58:15;2.22;;;1.75;;
65037;SDS011;51605;47.040;15.294;2023-06-10T13:00:41;5.53;;;2.30;;
65037;SDS011;51605;47.040;15.294;2023-06-10T13:03:08;2.83;;;2.00;;
65037;SDS011;51605;47.040;15.294;2023-06-10T13:05:35;2.60;;;2.40;;
65037;SDS011;51605;47.040;15.294;2023-06-10T13:08:03;2.45;;;1.70;;
65037;SDS011;51605;47.040;15.294;2023-06-10T13:10:30;2.35;;;2.13;;
65037;SDS011;51605;47.040;15.294;2023-06-10T13:12:55;2.30;;;2.08;;
65037;SDS011;51605;47.040;15.294;2023-06-10T13:15:22;2.58;;;2.38;;
65037;SDS011;51605;47.040;15.294;2023-06-10T13:17:48;2.57;;;1.90;;
65037;SDS011;51605;47.040;15.294;2023-06-10T13:20:15;2.25;;;2.00;;
65037;SDS011;51605;47.040;15.294;2023-06-10T13:22:41;2.22;;;1.98;;
65037;SDS011;51605;47.040;15.294;2023-06-10T13:25:07;2.08;;;1.88;;
65037;SDS011;51605;47.040;15.294;2023-06-10T13:27:36;2.43;;;2.00;;
65037;SDS011;51605;47.040;15.294;2023-06-10T13:30:08;2.38;;;1.95;;
65037;SDS011;51605;47.040;15.294;2023-06-10T13:32:35;2.10;;;1.90;;
65037;SDS011;51605;47.040;15.294;2023-06-10T13:35:01;2.20;;;2.00;;
65037;SDS011;51605;47.040;15.294;2023-06-10T13:37:28;2.00;;;1.80;;
65037;SDS011;51605;47.040;15.294;2023-06-10T13:39:54;2.47;;;2.28;;
65037;SDS011;51605;47.040;15.294;2023-06-10T13:42:20;2.40;;;2.20;;
65037;SDS011;51605;47.040;15.294;2023-06-10T13:44:46;2.38;;;2.10;;
65037;SDS011;51605;47.040;15.294;2023-06-10T13:47:16;2.00;;;1.80;;
65037;SDS011;51605;47.040;15.294;2023-06-10T13:49:42;2.13;;;1.88;;
65037;SDS011;51605;47.040;15.294;2023-06-10T13:52:08;2.30;;;2.10;;
65037;SDS011;51605;47.040;15.294;2023-06-10T13:54:34;2.47;;;2.17;;
65037;SDS011;51605;47.040;15.294;2023-06-10T13:59:26;2.83;;;1.80;;
65037;SDS011;51605;47.040;15.294;2023-06-10T14:01:52;2.63;;;2.10;;
65037;SDS011;51605;47.040;15.294;2023-06-10T14:04:18;2.38;;;2.10;;
65037;SDS011;51605;47.040;15.294;2023-06-10T14:06:43;2.30;;;2.08;;
65037;SDS011;51605;47.040;15.294;2023-06-10T14:09:10;2.22;;;2.00;;
65037;SDS011;51605;47.040;15.294;2023-06-10T14:11:38;2.17;;;1.98;;
65037;SDS011;51605;47.040;15.294;2023-06-10T14:14:03;2.65;;;2.10;;
65037;SDS011;51605;47.040;15.294;2023-06-10T14:16:29;2.65;;;2.40;;
65037;SDS011;51605;47.040;15.294;2023-06-10T14:18:55;2.80;;;2.40;;
65037;SDS011;51605;47.040;15.294;2023-06-10T14:21:20;2.60;;;2.35;;
65037;SDS011;51605;47.040;15.294;2023-06-10T14:23:46;2.58;;;2.00;;
65037;SDS011;51605;47.040;15.294;2023-06-10T14:26:13;3.13;;;2.40;;
65037;SDS011;51605;47.040;15.294;2023-06-10T14:28:40;2.67;;;2.47;;
65037;SDS011;51605;47.040;15.294;2023-06-10T14:31:05;2.28;;;1.77;;
65037;SDS011;51605;47.040;15.294;2023-06-10T14:33:32;3.03;;;2.25;;
65037;SDS011;51605;47.040;15.294;2023-06-10T14:35:58;2.42;;;2.05;;
65037;SDS011;51605;47.040;15.294;2023-06-10T14:38:23;2.30;;;2.00;;
65037;SDS011;51605;47.040;15.294;2023-06-10T14:40:49;2.63;;;2.00;;
65037;SDS011;51605;47.040;15.294;2023-06-10T14:43:15;2.20;;;2.00;;
65037;SDS011;51605;47.040;15.294;2023-06-10T14:45:40;3.10;;;2.30;;
65037;SDS011;51605;47.040;15.294;2023-06-10T14:48:06;2.20;;;1.98;;
65037;SDS011;51605;47.040;15.294;2023-06-10T14:50:34;2.20;;;1.77;;
65037;SDS011;51605;47.040;15.294;2023-06-10T14:53:00;3.33;;;2.20;;
65037;SDS011;51605;47.040;15.294;2023-06-10T14:55:26;2.78;;;1.90;;
65037;SDS011;51605;47.040;15.294;2023-06-10T14:57:51;2.30;;;1.90;;
65037;SDS011;51605;47.040;15.294;2023-06-10T15:00:17;2.55;;;1.88;;
65037;SDS011;51605;47.040;15.294;2023-06-10T15:02:47;2.53;;;2.00;;
65037;SDS011;51605;47.040;15.294;2023-06-10T15:05:13;2.33;;;2.13;;
65037;SDS011;51605;47.040;15.294;2023-06-10T15:07:42;2.55;;;2.10;;
65037;SDS011;51605;47.040;15.294;2023-06-10T15:10:08;2.97;;;2.10;;
65037;SDS011;51605;47.040;15.294;2023-06-10T15:12:36;2.10;;;1.90;;
65037;SDS011;51605;47.040;15.294;2023-06-10T15:15:02;2.40;;;2.17;;
65037;SDS011;51605;47.040;15.294;2023-06-10T15:17:28;2.78;;;2.20;;